Time;durP1;ratioP1;P1;durP2;ratioP2;P2;SDS_P1;SDS_P2;PMS_P1;PMS_P2;Temp;Humidity;BMP_temperature;BMP_pressure;BME280_temperature;BME280_humidity;BME280_pressure;Samples;Min_cycle;Max_cycle;Signal;HPM_P1;HPM_P2
2022/09/12 00:05:07;;;;;;;69.83;36.00;;;12.30;99.90;;;;;;2615231;54;20122;-72
2022/09/12 00:14:57;;;;;;;71.03;36.70;;;12.00;99.90;;;;;;2615008;54;21102;-72
2022/09/12 00:20:46;;;;;;;61.07;34.77;;;12.00;99.90;;;;;;2615163;54;20423;-71
2022/09/12 00:26:34;;;;;;;62.77;33.90;;;12.20;99.90;;;;;;2614742;54;21042;-71
2022/09/12 00:29:37;;;;;;;79.20;36.00;;;12.10;99.90;;;;;;2614689;54;20431;-72
2022/09/12 00:32:03;;;;;;;77.73;36.10;;;12.10;99.90;;;;;;2614505;47;20656;-73
2022/09/12 00:37:50;;;;;;;56.33;33.30;;;11.90;99.90;;;;;;2614020;46;20398;-72
2022/09/12 00:43:41;;;;;;;69.43;36.50;;;12.00;99.90;;;;;;2615160;46;20137;-71
2022/09/12 00:55:50;;;;;;;59.13;32.07;;;11.80;99.90;;;;;;2609293;54;20383;-72
2022/09/12 01:01:40;;;;;;;60.77;33.93;;;11.70;99.90;;;;;;2611083;54;20490;-72
2022/09/12 01:07:28;;;;;;;72.20;38.07;;;11.80;99.90;;;;;;2611013;54;20443;-72
2022/09/12 01:10:25;;;;;;;65.97;36.80;;;11.70;99.90;;;;;;2610123;54;20939;-76
2022/09/12 01:12:50;;;;;;;60.37;36.53;;;11.50;99.90;;;;;;2610446;54;20155;-72
2022/09/12 01:25:02;;;;;;;61.20;35.47;;;11.50;99.90;;;;;;2610537;54;20388;-72
2022/09/12 01:37:24;;;;;;;60.73;33.07;;;11.40;99.90;;;;;;2609745;54;21002;-72
2022/09/12 01:49:48;;;;;;;55.63;33.03;;;11.50;99.90;;;;;;2607847;54;20378;-73
2022/09/12 01:55:48;;;;;;;59.57;34.30;;;11.40;99.90;;;;;;2608363;54;20423;-72
2022/09/12 02:08:16;;;;;;;62.13;30.67;;;11.20;99.90;;;;;;2609737;54;20383;-74
2022/09/12 02:20:35;;;;;;;67.43;31.40;;;11.20;99.90;;;;;;2610914;46;20514;-73
2022/09/12 02:32:59;;;;;;;69.30;32.07;;;11.00;99.90;;;;;;2610198;54;20512;-72
2022/09/12 02:38:48;;;;;;;60.37;32.27;;;11.00;99.90;;;;;;2610596;54;20396;-74
2022/09/12 02:44:35;;;;;;;57.73;33.90;;;11.10;99.90;;;;;;2609960;54;20440;-71
2022/09/12 02:50:23;;;;;;;58.03;31.40;;;11.10;99.90;;;;;;2611234;54;20412;-72
2022/09/12 02:56:18;;;;;;;55.13;30.57;;;11.00;99.90;;;;;;2613039;54;20390;-72
2022/09/12 03:12:40;;;;;;;62.30;31.10;;;11.00;99.90;;;;;;2614273;46;20964;-73
2022/09/12 03:21:59;;;;;;;52.77;28.80;;;10.70;99.90;;;;;;2614392;54;20375;-73
2022/09/12 03:32:21;;;;;;;64.23;28.47;;;10.70;99.90;;;;;;2611820;54;20404;-72
2022/09/12 03:38:08;;;;;;;53.93;27.87;;;10.70;99.90;;;;;;2611993;54;20374;-72
2022/09/12 03:43:56;;;;;;;44.63;27.40;;;10.70;99.90;;;;;;2612192;54;20433;-73
2022/09/12 03:49:43;;;;;;;55.47;30.40;;;10.70;99.90;;;;;;2612569;54;20234;-73
2022/09/12 03:55:30;;;;;;;51.90;27.60;;;10.70;99.90;;;;;;2611674;54;20152;-72
2022/09/12 04:01:19;;;;;;;43.90;27.20;;;10.60;99.90;;;;;;2612484;46;20145;-73
2022/09/12 04:07:06;;;;;;;57.37;29.57;;;10.60;99.90;;;;;;2614293;54;20382;-73
2022/09/12 04:17:13;;;;;;;56.23;29.57;;;10.60;99.90;;;;;;2613416;54;20380;-72
2022/09/12 04:23:00;;;;;;;55.40;30.40;;;10.60;99.90;;;;;;2613545;54;20386;-73
2022/09/12 04:28:53;;;;;;;53.60;28.17;;;10.60;99.90;;;;;;2613946;54;20206;-72
2022/09/12 04:34:41;;;;;;;50.50;28.30;;;10.60;99.90;;;;;;2614422;39;20441;-72
2022/09/12 04:40:30;;;;;;;56.70;26.93;;;10.70;99.90;;;;;;2614615;54;20123;-73
2022/09/12 04:46:19;;;;;;;57.53;29.27;;;10.60;99.90;;;;;;2614145;54;20395;-72
2022/09/12 04:52:07;;;;;;;43.30;28.23;;;10.50;99.90;;;;;;2613285;39;20738;-73
2022/09/12 04:57:54;;;;;;;45.10;27.83;;;10.40;99.90;;;;;;2612915;54;20155;-73
2022/09/12 05:03:45;;;;;;;40.23;25.90;;;10.50;99.90;;;;;;2613850;54;20453;-72
2022/09/12 05:09:32;;;;;;;52.37;29.70;;;10.50;99.90;;;;;;2613653;54;20511;-73
2022/09/12 05:12:38;;;;;;;47.17;26.83;;;10.60;99.90;;;;;;2612371;46;20418;-74
2022/09/12 05:15:04;;;;;;;54.33;27.10;;;10.60;99.90;;;;;;2612335;54;20244;-73
2022/09/12 05:20:53;;;;;;;43.33;26.63;;;10.90;99.90;;;;;;2615251;54;20403;-75
2022/09/12 05:26:40;;;;;;;51.77;29.23;;;10.90;99.90;;;;;;2613293;54;20979;-72
2022/09/12 05:32:31;;;;;;;49.80;28.90;;;11.20;99.90;;;;;;2614242;54;20133;-72
2022/09/12 05:38:19;;;;;;;52.67;29.60;;;11.40;99.90;;;;;;2614498;54;20432;-73
2022/09/12 05:41:05;;;;;;;48.07;28.90;;;11.50;99.90;;;;;;2611089;54;20410;-71
2022/09/12 05:43:32;;;;;;;47.33;29.07;;;11.50;99.90;;;;;;2613885;47;20177;-74
2022/09/12 05:46:35;;;;;;;61.40;29.70;;;11.60;99.90;;;;;;2614596;54;20423;-72
2022/09/12 05:49:05;;;;;;;55.33;32.03;;;11.80;99.90;;;;;;2613941;54;20503;-74
2022/09/12 05:54:53;;;;;;;62.50;31.57;;;12.10;99.90;;;;;;2612592;54;20958;-72
2022/09/12 06:00:42;;;;;;;47.63;30.20;;;12.50;99.90;;;;;;2615412;46;20686;-71
2022/09/12 06:06:31;;;;;;;45.83;27.53;;;12.80;99.90;;;;;;2613697;54;20373;-73
2022/09/12 06:12:19;;;;;;;51.27;28.90;;;13.40;99.90;;;;;;2614641;54;20411;-73
2022/09/12 06:18:07;;;;;;;38.87;24.93;;;14.10;99.90;;;;;;2614062;54;20150;-73
2022/09/12 06:23:57;;;;;;;36.30;22.50;;;15.00;99.90;;;;;;2614792;54;20138;-72
2022/09/12 06:29:45;;;;;;;28.00;18.90;;;16.50;99.90;;;;;;2614939;54;20403;-73
2022/09/12 06:35:36;;;;;;;23.13;18.20;;;16.10;99.90;;;;;;2613185;54;20657;-74
2022/09/12 06:41:25;;;;;;;23.13;18.57;;;15.80;99.90;;;;;;2614525;54;21002;-74
2022/09/12 06:47:12;;;;;;;20.70;15.90;;;15.90;99.90;;;;;;2615605;54;20505;-73
2022/09/12 06:53:00;;;;;;;24.30;18.43;;;16.10;99.90;;;;;;2615642;54;20138;-73
2022/09/12 06:58:49;;;;;;;20.27;15.97;;;16.50;99.90;;;;;;2615181;54;20175;-73
2022/09/12 07:04:37;;;;;;;16.33;14.00;;;17.30;99.90;;;;;;2615099;54;20526;-72
2022/09/12 07:10:26;;;;;;;17.13;13.77;;;17.50;99.90;;;;;;2615602;54;20925;-73
2022/09/12 07:19:36;;;;;;;15.63;11.10;;;18.10;99.90;;;;;;2614975;54;20622;-73
2022/09/12 07:25:24;;;;;;;18.97;10.77;;;18.10;99.90;;;;;;2615266;54;20148;-72
2022/09/12 07:31:15;;;;;;;11.97;10.80;;;18.00;99.90;;;;;;2615439;54;20142;-72
2022/09/12 07:37:02;;;;;;;14.80;10.20;;;18.20;99.90;;;;;;2614812;54;20509;-74
2022/09/12 07:42:50;;;;;;;13.13;9.93;;;18.30;99.90;;;;;;2615948;39;20682;-73
2022/09/12 07:48:38;;;;;;;20.70;9.97;;;18.40;99.90;;;;;;2615814;54;20120;-73
2022/09/12 07:54:26;;;;;;;22.10;10.77;;;18.10;99.90;;;;;;2615208;31;20860;-72
2022/09/12 08:00:14;;;;;;;25.50;13.00;;;18.40;99.90;;;;;;2615889;54;20646;-71
2022/09/12 08:06:11;;;;;;;13.57;9.80;;;18.60;99.90;;;;;;2615354;54;20418;-74
2022/09/12 08:11:59;;;;;;;12.63;9.60;;;19.10;99.90;;;;;;2615983;54;20472;-71
2022/09/12 08:15:01;;;;;;;14.13;9.87;;;19.60;99.90;;;;;;2615478;54;20404;-72
2022/09/12 08:17:27;;;;;;;13.10;10.90;;;19.70;99.90;;;;;;2614282;54;20979;-71
2022/09/12 08:23:16;;;;;;;10.83;9.80;;;19.60;99.90;;;;;;2615729;54;20610;-72
2022/09/12 08:29:04;;;;;;;11.97;10.07;;;20.10;99.90;;;;;;2614739;54;20386;-73
2022/09/12 08:34:52;;;;;;;12.77;10.33;;;20.30;99.90;;;;;;2615646;54;20183;-72
2022/09/12 08:47:26;;;;;;;10.90;9.80;;;20.80;99.90;;;;;;2612443;54;20396;-72
2022/09/12 08:53:19;;;;;;;10.50;9.40;;;21.50;99.90;;;;;;2609684;54;20399;-72
2022/09/12 08:59:07;;;;;;;10.87;9.90;;;21.00;99.90;;;;;;2612228;54;20517;-71
2022/09/12 09:24:57;;;;;;;9.57;8.67;;;22.30;92.00;;;;;;2612305;54;20523;-73
2022/09/12 09:30:45;;;;;;;11.10;8.27;;;23.00;84.90;;;;;;2614048;54;20396;-72
2022/09/12 09:49:56;;;;;;;8.37;7.57;;;23.00;78.20;;;;;;2612547;54;20380;-72
2022/09/12 09:55:44;;;;;;;9.17;8.37;;;24.10;56.80;;;;;;2611962;54;20134;-72
2022/09/12 10:01:33;;;;;;;8.40;7.50;;;24.90;47.30;;;;;;2611361;54;20398;-72
2022/09/12 10:07:21;;;;;;;7.00;6.40;;;25.00;42.70;;;;;;2613671;54;20415;-72
2022/09/12 10:19:42;;;;;;;5.67;5.17;;;25.60;39.00;;;;;;2612662;54;20419;-72
2022/09/12 10:25:32;;;;;;;5.87;5.27;;;25.10;29.70;;;;;;2612522;46;20153;-72
2022/09/12 10:38:03;;;;;;;4.70;4.37;;;25.70;26.60;;;;;;2610436;54;20536;-71
2022/09/12 10:43:51;;;;;;;4.60;4.30;;;25.30;25.10;;;;;;2612819;54;20440;-72
2022/09/12 10:49:39;;;;;;;5.90;5.50;;;24.80;24.10;;;;;;2613619;54;20139;-73
2022/09/12 10:55:33;;;;;;;5.30;4.90;;;25.50;21.80;;;;;;2613732;54;20416;-71
2022/09/12 11:01:43;;;;;;;5.50;4.80;;;26.80;20.50;;;;;;2615226;54;20387;-71
2022/09/12 11:13:58;;;;;;;4.73;4.30;;;25.50;22.00;;;;;;2615335;54;20388;-71
2022/09/12 11:23:17;;;;;;;5.27;4.87;;;26.30;20.60;;;;;;2613864;54;20390;-72
2022/09/12 11:35:48;;;;;;;5.00;4.70;;;27.40;16.80;;;;;;2613575;54;20389;-70
2022/09/12 11:41:40;;;;;;;5.07;4.77;;;25.70;17.20;;;;;;2611751;54;20428;-72
2022/09/12 11:47:30;;;;;;;5.73;5.13;;;26.10;19.40;;;;;;2614674;54;20421;-71
2022/09/12 11:53:25;;;;;;;5.23;4.83;;;26.70;15.40;;;;;;2614762;54;20383;-72
2022/09/12 12:09:59;;;;;;;5.23;4.93;;;27.70;14.10;;;;;;2614082;54;20426;-73
2022/09/12 12:15:57;;;;;;;5.23;4.90;;;27.10;15.60;;;;;;2613345;54;20439;-71
2022/09/12 12:18:44;;;;;;;4.43;4.23;;;27.10;13.90;;;;;;2613047;54;20983;-71
2022/09/12 12:21:18;;;;;;;4.87;4.57;;;26.60;13.30;;;;;;2612470;54;20411;-71
2022/09/12 12:33:48;;;;;;;5.70;5.20;;;27.30;14.40;;;;;;2614302;54;20409;-71
2022/09/12 12:39:36;;;;;;;5.30;4.80;;;27.90;12.80;;;;;;2613748;54;20176;-72
2022/09/12 12:45:26;;;;;;;5.70;5.10;;;26.30;13.00;;;;;;2614760;54;20175;-72
2022/09/12 12:51:29;;;;;;;5.50;5.10;;;25.60;15.60;;;;;;2615012;39;20799;-73
2022/09/12 13:03:52;;;;;;;5.97;5.57;;;27.40;13.80;;;;;;2615539;54;21211;-71
2022/09/12 13:09:46;;;;;;;5.37;5.07;;;26.40;13.50;;;;;;2614954;54;20432;-72
2022/09/12 13:15:36;;;;;;;5.53;5.17;;;25.90;13.80;;;;;;2613606;54;20411;-72
2022/09/12 13:18:40;;;;;;;5.53;5.20;;;27.10;13.90;;;;;;2614343;54;20527;-73
2022/09/12 13:21:15;;;;;;;6.07;5.57;;;27.60;11.80;;;;;;2614386;51;20561;-71
2022/09/12 13:44:22;;;;;;;5.83;5.40;;;26.90;11.00;;;;;;2612866;54;20383;-72
2022/09/12 13:54:26;;;;;;;5.10;4.80;;;27.20;8.00;;;;;;2611469;39;22274;-73
2022/09/12 14:00:17;;;;;;;5.40;5.00;;;26.60;7.20;;;;;;2612760;54;21133;-71
2022/09/12 14:06:07;;;;;;;5.13;4.83;;;28.00;7.60;;;;;;2611051;54;20419;-71
2022/09/12 14:11:54;;;;;;;8.23;4.87;;;28.30;7.00;;;;;;2611653;54;20501;-72
2022/09/12 14:17:50;;;;;;;5.50;4.97;;;27.80;8.30;;;;;;2612601;54;20381;-72
2022/09/12 14:26:59;;;;;;;5.00;4.67;;;27.60;7.60;;;;;;2611973;54;20437;-73
2022/09/12 14:33:04;;;;;;;5.23;4.90;;;28.00;8.40;;;;;;2612380;54;20391;-71
2022/09/12 14:58:21;;;;;;;5.87;5.47;;;27.90;7.20;;;;;;2614503;54;20917;-71
2022/09/12 15:04:09;;;;;;;5.23;4.93;;;27.70;7.50;;;;;;2614923;54;20379;-72
2022/09/12 15:09:58;;;;;;;5.00;4.70;;;28.20;6.80;;;;;;2615559;54;20142;-72
2022/09/12 15:29:20;;;;;;;5.77;5.27;;;27.30;5.50;;;;;;2619341;54;20412;-72
2022/09/12 15:35:23;;;;;;;4.93;4.63;;;26.60;6.80;;;;;;2619450;54;20682;-75
2022/09/12 15:47:32;;;;;;;4.73;4.43;;;26.50;6.20;;;;;;2619669;54;20398;-72
2022/09/12 15:53:19;;;;;;;7.60;6.90;;;26.60;5.10;;;;;;2617127;54;20245;-72
2022/09/12 15:59:07;;;;;;;8.63;7.93;;;26.40;6.10;;;;;;2618359;54;20141;-71
2022/09/12 16:04:55;;;;;;;6.13;5.67;;;26.70;6.40;;;;;;2618999;54;20130;-73
2022/09/12 16:10:43;;;;;;;4.90;4.60;;;26.40;6.20;;;;;;2617027;54;20184;-72
2022/09/12 16:16:31;;;;;;;5.07;4.77;;;25.80;6.90;;;;;;2616763;54;20398;-71
2022/09/12 16:22:19;;;;;;;6.33;5.83;;;25.90;7.10;;;;;;2619361;54;20434;-71
2022/09/12 16:31:29;;;;;;;5.43;5.13;;;25.20;8.80;;;;;;2618849;54;20422;-71
2022/09/12 16:37:17;;;;;;;6.50;5.30;;;25.20;8.30;;;;;;2615372;54;20284;-72
2022/09/12 16:43:05;;;;;;;6.20;5.80;;;26.10;9.50;;;;;;2616123;54;20387;-71
2022/09/12 16:48:57;;;;;;;6.23;5.77;;;25.90;9.90;;;;;;2613653;54;20170;-73
2022/09/12 16:54:45;;;;;;;6.10;5.70;;;25.40;10.30;;;;;;2613576;54;20407;-71
2022/09/12 17:00:33;;;;;;;5.30;5.00;;;26.40;9.40;;;;;;2614421;54;20153;-72
2022/09/12 17:06:21;;;;;;;5.68;5.28;;;26.20;10.10;;;;;;2612278;54;20142;-71
2022/09/12 17:12:09;;;;;;;5.70;5.30;;;25.00;11.00;;;;;;2613676;54;20410;-71
2022/09/12 17:17:56;;;;;;;6.40;5.80;;;24.10;13.00;;;;;;2613811;54;20149;-72
2022/09/12 17:23:44;;;;;;;5.43;4.93;;;24.00;13.50;;;;;;2613233;54;20162;-72
2022/09/12 17:26:48;;;;;;;6.60;6.10;;;23.70;13.40;;;;;;2611895;39;20884;-73
2022/09/12 17:32:53;;;;;;;6.80;6.13;;;23.10;17.30;;;;;;2614889;54;20462;-73
2022/09/12 17:38:44;;;;;;;5.93;5.43;;;22.50;25.20;;;;;;2612633;54;20438;-72
2022/09/12 17:44:35;;;;;;;6.83;6.13;;;21.90;30.40;;;;;;2612890;54;20391;-74
2022/09/12 17:47:39;;;;;;;7.50;5.83;;;21.70;31.10;;;;;;2613228;54;20414;-73
2022/09/12 17:50:06;;;;;;;5.73;5.13;;;21.50;33.50;;;;;;2612678;54;20410;-73
2022/09/12 17:55:53;;;;;;;7.28;5.88;;;21.20;40.10;;;;;;2614350;54;21032;-73
2022/09/12 18:07:48;;;;;;;7.22;6.72;;;20.40;56.70;;;;;;2614008;54;20409;-71
2022/09/12 18:13:35;;;;;;;9.07;7.63;;;20.20;69.30;;;;;;2614903;54;20138;-72
2022/09/12 18:19:23;;;;;;;12.53;10.47;;;19.90;76.90;;;;;;2614626;39;20600;-71
2022/09/12 18:25:11;;;;;;;14.15;12.80;;;19.60;90.70;;;;;;2612748;54;20181;-71
2022/09/12 18:28:21;;;;;;;15.40;13.80;;;19.50;91.80;;;;;;2615606;54;20135;-71
2022/09/12 18:30:46;;;;;;;15.07;13.50;;;19.50;89.40;;;;;;2614440;54;20153;-72
2022/09/12 18:36:34;;;;;;;15.80;14.20;;;19.30;96.60;;;;;;2612261;54;20157;-71
2022/09/12 18:42:21;;;;;;;10.60;9.60;;;19.30;99.90;;;;;;2610502;54;20166;-72
2022/09/12 18:48:09;;;;;;;11.60;10.60;;;19.10;99.90;;;;;;2611599;46;20165;-72
2022/09/12 18:54:00;;;;;;;11.00;9.87;;;19.00;99.90;;;;;;2614659;54;20132;-72
2022/09/12 18:59:48;;;;;;;13.63;12.23;;;18.70;99.90;;;;;;2613631;39;20756;-71
2022/09/12 19:05:36;;;;;;;12.50;11.10;;;18.60;99.90;;;;;;2614785;54;20445;-72
2022/09/12 19:11:25;;;;;;;15.15;13.60;;;18.60;99.90;;;;;;2614695;54;20171;-70
2022/09/12 19:17:13;;;;;;;16.50;14.90;;;18.60;99.90;;;;;;2614189;54;20385;-71
2022/09/12 19:23:01;;;;;;;18.00;15.63;;;18.60;99.90;;;;;;2612800;54;20132;-72
2022/09/12 19:32:52;;;;;;;11.87;10.67;;;18.60;99.90;;;;;;2613646;54;20992;-71
2022/09/12 19:38:40;;;;;;;11.60;10.40;;;18.60;99.90;;;;;;2614156;54;20430;-75
2022/09/12 19:44:28;;;;;;;16.40;10.07;;;18.60;99.90;;;;;;2613120;54;20963;-71
2022/09/12 19:50:16;;;;;;;21.52;11.75;;;18.40;99.90;;;;;;2613582;39;20765;-72
2022/09/12 19:56:05;;;;;;;13.00;9.37;;;18.30;99.90;;;;;;2614407;54;20418;-72
2022/09/12 20:01:53;;;;;;;12.20;9.03;;;18.20;99.90;;;;;;2613064;54;20500;-73
2022/09/12 20:07:40;;;;;;;12.85;8.23;;;18.10;99.90;;;;;;2614158;54;20187;-71
2022/09/12 20:13:28;;;;;;;12.70;9.33;;;18.00;99.90;;;;;;2613920;54;20410;-72
2022/09/12 20:19:16;;;;;;;8.27;7.57;;;18.10;99.90;;;;;;2615396;54;20122;-72
2022/09/12 20:25:05;;;;;;;10.13;8.27;;;18.30;99.90;;;;;;2612747;54;20136;-71
2022/09/12 20:31:06;;;;;;;7.07;6.40;;;18.20;99.90;;;;;;2614025;54;20483;-73
2022/09/12 20:36:53;;;;;;;6.40;5.77;;;18.60;99.90;;;;;;2614205;54;21301;-72
2022/09/12 20:42:40;;;;;;;7.30;6.70;;;19.20;94.30;;;;;;2613403;54;20130;-73
2022/09/12 20:48:29;;;;;;;6.57;6.10;;;19.30;89.60;;;;;;2613574;54;20138;-73
2022/09/12 20:54:16;;;;;;;6.17;5.73;;;19.40;83.30;;;;;;2614466;54;20415;-71
2022/09/12 21:00:07;;;;;;;6.83;6.23;;;19.50;78.00;;;;;;2613579;39;20569;-73
2022/09/12 21:05:55;;;;;;;6.40;5.80;;;19.60;73.80;;;;;;2613482;54;20402;-73
2022/09/12 21:11:43;;;;;;;7.20;6.60;;;19.60;70.90;;;;;;2615423;54;20383;-71
2022/09/12 21:17:30;;;;;;;5.80;5.40;;;19.70;67.60;;;;;;2613703;54;20133;-71
2022/09/12 21:23:19;;;;;;;6.43;5.83;;;19.60;66.80;;;;;;2615907;54;20161;-73
2022/09/12 21:32:54;;;;;;;6.53;6.03;;;19.40;70.60;;;;;;2615811;54;20413;-72
2022/09/12 21:38:42;;;;;;;6.00;5.27;;;19.20;75.40;;;;;;2615703;54;20436;-71
2022/09/12 21:44:29;;;;;;;6.65;6.15;;;19.10;78.70;;;;;;2617062;31;20590;-72
2022/09/12 21:50:17;;;;;;;6.77;6.17;;;18.80;84.90;;;;;;2615597;54;20127;-72
2022/09/12 21:56:07;;;;;;;8.63;5.93;;;18.60;92.30;;;;;;2614843;54;20417;-71
2022/09/12 22:01:55;;;;;;;7.50;6.70;;;18.20;99.90;;;;;;2615501;54;20942;-71
2022/09/12 22:07:43;;;;;;;6.00;5.50;;;17.70;99.90;;;;;;2615019;54;20272;-71
2022/09/12 22:13:31;;;;;;;6.70;6.20;;;17.80;99.90;;;;;;2614892;54;20402;-73
2022/09/12 22:19:19;;;;;;;7.03;6.43;;;18.20;98.80;;;;;;2615661;54;20389;-72
2022/09/12 22:25:09;;;;;;;6.77;6.27;;;18.10;99.90;;;;;;2615286;54;20266;-72
2022/09/12 22:28:21;;;;;;;6.60;6.10;;;18.00;99.90;;;;;;2614810;54;20420;-71
2022/09/12 22:30:47;;;;;;;9.63;5.93;;;18.10;98.50;;;;;;2615825;54;20430;-72
2022/09/12 22:36:35;;;;;;;5.97;5.47;;;18.60;91.10;;;;;;2613926;54;20387;-71
2022/09/12 22:42:23;;;;;;;6.00;5.60;;;19.30;73.60;;;;;;2613739;54;20181;-72
2022/09/12 22:48:11;;;;;;;5.60;5.20;;;19.20;74.80;;;;;;2615293;54;20406;-73
2022/09/12 22:53:59;;;;;;;4.93;4.63;;;19.20;72.80;;;;;;2615858;39;20520;-72
2022/09/12 22:59:47;;;;;;;5.50;5.00;;;19.20;72.00;;;;;;2615453;54;20399;-72
2022/09/12 23:05:35;;;;;;;5.97;5.47;;;19.00;75.80;;;;;;2614633;54;20126;-72
2022/09/12 23:11:23;;;;;;;5.50;5.10;;;19.00;75.80;;;;;;2615108;54;20399;-70
2022/09/12 23:17:11;;;;;;;9.03;5.57;;;18.90;78.60;;;;;;2614536;54;20626;-74
2022/09/12 23:22:59;;;;;;;5.47;5.07;;;19.00;77.90;;;;;;2614712;54;20579;-72
2022/09/12 23:32:55;;;;;;;5.87;5.37;;;18.80;82.90;;;;;;2614649;54;20403;-71
2022/09/12 23:38:45;;;;;;;8.57;5.50;;;18.60;87.90;;;;;;2615207;54;20422;-72
2022/09/12 23:44:32;;;;;;;5.37;4.97;;;18.60;87.70;;;;;;2615784;39;20769;-74
2022/09/12 23:47:36;;;;;;;5.87;5.47;;;18.50;89.90;;;;;;2614427;54;20443;-72
2022/09/12 23:50:02;;;;;;;5.40;4.93;;;18.60;88.20;;;;;;2615905;54;20150;-71
2022/09/12 23:55:49;;;;;;;5.87;5.47;;;18.70;87.80;;;;;;2614344;39;20833;-72
